Check out our new BloomSky Weather System.

Active alerts


No alerts


Thunder radar  blitzortung!


Rain radar more information rain snow radar


Visit our other weather sites:

Template documentation
and downloads

And another site



Weather Underground History page Text

Daily Summary for May 21, 2017 Units:  Metric    English   Both
« Previous Day
Next Day »
Daily Weekly Monthly Yearly Custom
  High: Low: Average:
Temperature: 31.4 °C 22.2 °C 25.2 °C
Dew Point: 25.3 °C 21.2 °C 22.9 °C
Humidity: 98 % 67 % 88 %
Wind Speed: 14.5 km/h 0 km/h 3.2 km/h
Wind Gust: 20.9 km/h - -
Wind:- - SW
Pressure: 1017.2 hPa 1013.4 hPa -
Precipitation: 0 mm    
Historical Graphs
 
 
Tabular Data for May 21, 2017
Time Temperature Dew Point Pressure Wind Wind Speed Wind Gust Humidity Rainfall Rate (Hourly)
00:02 25.4 °C 24.7 °C 1013.4 hPa Calm   1.6 km/h 96 % 0 mm
00:07 25.4 °C 24.7 °C 1013.4 hPa Calm   1.6 km/h 96 % 0 mm
00:12 25.4 °C 24.7 °C 1013.4 hPa Calm   1.6 km/h 96 % 0 mm
00:17 25.4 °C 24.7 °C 1013.8 hPa Calm   1.6 km/h 96 % 0 mm
00:22 25.3 °C 24.6 °C 1013.8 hPa Calm   1.6 km/h 96 % 0 mm
00:27 25.3 °C 24.6 °C 1013.8 hPa NNW 1.6 km/h 3.2 km/h 96 % 0 mm
00:32 25.2 °C 24.5 °C 1013.8 hPa Calm   4.8 km/h 96 % 0 mm
00:37 25.1 °C 24.4 °C 1013.8 hPa Calm   4.8 km/h 96 % 0 mm
00:42 24.9 °C 24.2 °C 1014.1 hPa Calm   4.8 km/h 96 % 0 mm
00:47 24.8 °C 24.1 °C 1014.1 hPa Calm   3.2 km/h 96 % 0 mm
00:52 24.8 °C 24.1 °C 1014.1 hPa NNW 1.6 km/h 3.2 km/h 96 % 0 mm
00:57 24.7 °C 24 °C 1014.1 hPa Calm   4.8 km/h 96 % 0 mm
01:02 24.6 °C 24.1 °C 1014.1 hPa North 1.6 km/h 4.8 km/h 97 % 0 mm
01:07 24.6 °C 24.1 °C 1014.1 hPa NNW 1.6 km/h 4.8 km/h 97 % 0 mm
01:12 24.6 °C 24.1 °C 1014.1 hPa Calm   3.2 km/h 97 % 0 mm
01:17 24.6 °C 24.1 °C 1014.1 hPa NNW 1.6 km/h 3.2 km/h 97 % 0 mm
01:22 24.6 °C 24.1 °C 1014.1 hPa NNW 3.2 km/h 3.2 km/h 97 % 0 mm
01:27 24.5 °C 24 °C 1013.8 hPa Calm   3.2 km/h 97 % 0 mm
01:32 24.4 °C 23.9 °C 1013.8 hPa Calm   3.2 km/h 97 % 0 mm
01:37 24.4 °C 23.9 °C 1013.8 hPa Calm   3.2 km/h 97 % 0 mm
01:42 24.4 °C 23.9 °C 1014.1 hPa Calm   3.2 km/h 97 % 0 mm
01:47 24.5 °C 24 °C 1014.4 hPa NNE 3.2 km/h 3.2 km/h 97 % 0 mm
01:52 24.5 °C 24 °C 1014.4 hPa Calm   3.2 km/h 97 % 0 mm
01:57 24.5 °C 24 °C 1014.4 hPa Calm   3.2 km/h 97 % 0 mm
02:02 24.4 °C 23.9 °C 1014.1 hPa Calm   3.2 km/h 97 % 0 mm
02:07 24.5 °C 24 °C 1014.1 hPa Calm   1.6 km/h 97 % 0 mm
02:12 24.5 °C 24 °C 1014.1 hPa Calm   1.6 km/h 97 % 0 mm
02:17 24.4 °C 24.1 °C 1014.4 hPa NW 1.6 km/h 6.4 km/h 98 % 0 mm
02:22 24.4 °C 23.9 °C 1014.4 hPa NW 3.2 km/h 6.4 km/h 97 % 0 mm
02:27 24.3 °C 23.8 °C 1014.4 hPa Calm   9.7 km/h 97 % 0 mm
02:32 24.1 °C 23.6 °C 1014.1 hPa NNW 1.6 km/h 9.7 km/h 97 % 0 mm
02:37 24.1 °C 23.8 °C 1014.1 hPa Calm   9.7 km/h 98 % 0 mm
02:42 24.1 °C 23.8 °C 1014.4 hPa Calm   6.4 km/h 98 % 0 mm
02:48 24 °C 23.7 °C 1014.4 hPa Calm   3.2 km/h 98 % 0 mm
02:53 23.9 °C 23.6 °C 1014.4 hPa Calm   3.2 km/h 98 % 0 mm
02:58 23.9 °C 23.6 °C 1014.4 hPa Calm   3.2 km/h 98 % 0 mm
03:03 23.9 °C 23.6 °C 1014.4 hPa Calm   4.8 km/h 98 % 0 mm
03:08 23.9 °C 23.6 °C 1014.4 hPa North 1.6 km/h 4.8 km/h 98 % 0 mm
03:13 23.9 °C 23.6 °C 1014.8 hPa WNW 3.2 km/h 6.4 km/h 98 % 0 mm
03:18 23.9 °C 23.6 °C 1014.8 hPa NNW 3.2 km/h 8 km/h 98 % 0 mm
03:23 23.8 °C 23.5 °C 1014.8 hPa Calm   8 km/h 98 % 0 mm
03:28 23.7 °C 23.4 °C 1014.4 hPa North 6.4 km/h 8 km/h 98 % 0 mm
03:33 23.5 °C 23 °C 1014.4 hPa ENE 3.2 km/h 11.3 km/h 97 % 0 mm
03:38 23.4 °C 22.9 °C 1014.4 hPa NNE 4.8 km/h 11.3 km/h 97 % 0 mm
03:43 23.3 °C 22.8 °C 1014.4 hPa Calm   11.3 km/h 97 % 0 mm
03:53 23.1 °C 22.8 °C 1014.1 hPa East 1.6 km/h 6.4 km/h 98 % 0 mm
03:58 23 °C 22.7 °C 1014.1 hPa Calm   4.8 km/h 98 % 0 mm
04:03 22.9 °C 22.6 °C 1014.1 hPa Calm   4.8 km/h 98 % 0 mm
04:08 22.9 °C 22.6 °C 1014.1 hPa Calm   3.2 km/h 98 % 0 mm
04:13 22.8 °C 22.5 °C 1013.8 hPa Calm   1.6 km/h 98 % 0 mm
04:18 22.8 °C 22.5 °C 1013.8 hPa NE 1.6 km/h 1.6 km/h 98 % 0 mm
04:23 22.8 °C 22.5 °C 1013.8 hPa Calm   1.6 km/h 98 % 0 mm
04:28 22.8 °C 22.5 °C 1013.8 hPa Calm   1.6 km/h 98 % 0 mm
04:33 22.8 °C 22.5 °C 1013.8 hPa Calm   1.6 km/h 98 % 0 mm
04:38 22.7 °C 22.4 °C 1013.8 hPa SSE 1.6 km/h 1.6 km/h 98 % 0 mm
04:43 22.7 °C 22.4 °C 1013.8 hPa Calm   1.6 km/h 98 % 0 mm
04:46 22.7 °C 22.4 °C 1013.8 hPa Calm   1.6 km/h 98 % 0 mm
04:51 22.7 °C 22.4 °C 1014.1 hPa Calm   1.6 km/h 98 % 0 mm
04:56 22.7 °C 22.4 °C 1014.4 hPa Calm     98 % 0 mm
04:57 22.7 °C 22.4 °C 1014.4 hPa Calm     98 % 0 mm
05:02 22.7 °C 22.4 °C 1014.4 hPa SW 1.6 km/h 1.6 km/h 98 % 0 mm
05:07 22.7 °C 22.4 °C 1014.4 hPa NNW 4.8 km/h 4.8 km/h 98 % 0 mm
05:12 22.7 °C 22.4 °C 1014.8 hPa Calm   4.8 km/h 98 % 0 mm
05:17 22.7 °C 22.4 °C 1014.8 hPa NW 4.8 km/h 6.4 km/h 98 % 0 mm
05:22 22.7 °C 22.4 °C 1014.8 hPa NNE 3.2 km/h 9.7 km/h 98 % 0 mm
05:27 22.7 °C 22.4 °C 1014.8 hPa North 4.8 km/h 9.7 km/h 98 % 0 mm
05:32 22.6 °C 22.3 °C 1014.8 hPa NW 3.2 km/h 9.7 km/h 98 % 0 mm
05:37 22.6 °C 22.3 °C 1014.8 hPa NNW 4.8 km/h 9.7 km/h 98 % 0 mm
05:42 22.6 °C 22.3 °C 1014.8 hPa NNW 1.6 km/h 9.7 km/h 98 % 0 mm
05:47 22.6 °C 22.3 °C 1015.1 hPa Calm   9.7 km/h 98 % 0 mm
05:52 22.6 °C 22.3 °C 1015.1 hPa Calm   9.7 km/h 98 % 0 mm
05:57 22.6 °C 22.3 °C 1015.1 hPa North 3.2 km/h 9.7 km/h 98 % 0 mm
06:02 22.5 °C 22.2 °C 1014.8 hPa NNW 1.6 km/h 6.4 km/h 98 % 0 mm
06:07 22.5 °C 22.2 °C 1015.1 hPa North 1.6 km/h 6.4 km/h 98 % 0 mm
06:13 22.4 °C 22.1 °C 1014.8 hPa NNW 6.4 km/h 11.3 km/h 98 % 0 mm
06:18 22.3 °C 22 °C 1014.8 hPa Calm   11.3 km/h 98 % 0 mm
06:23 22.3 °C 22 °C 1015.1 hPa North 3.2 km/h 11.3 km/h 98 % 0 mm
06:28 22.3 °C 22 °C 1015.1 hPa North 1.6 km/h 12.9 km/h 98 % 0 mm
06:33 22.2 °C 21.9 °C 1015.1 hPa Calm   12.9 km/h 98 % 0 mm
06:38 22.2 °C 21.9 °C 1015.1 hPa NNE 6.4 km/h 12.9 km/h 98 % 0 mm
06:43 22.2 °C 21.9 °C 1015.1 hPa Calm   9.7 km/h 98 % 0 mm
06:48 22.2 °C 21.9 °C 1015.5 hPa Calm   9.7 km/h 98 % 0 mm
06:53 22.3 °C 22 °C 1015.5 hPa WNW 3.2 km/h 9.7 km/h 98 % 0 mm
06:58 22.3 °C 22 °C 1015.5 hPa Calm   6.4 km/h 98 % 0 mm
07:03 22.3 °C 22 °C 1015.5 hPa NNW 4.8 km/h 6.4 km/h 98 % 0 mm
07:08 22.3 °C 22 °C 1015.5 hPa North 3.2 km/h 9.7 km/h 98 % 0 mm
07:13 22.3 °C 22 °C 1015.8 hPa NW 4.8 km/h 9.7 km/h 98 % 0 mm
07:18 22.4 °C 22.1 °C 1015.8 hPa NNW 1.6 km/h 14.5 km/h 98 % 0 mm
07:23 22.4 °C 22.1 °C 1015.8 hPa NNW 1.6 km/h 14.5 km/h 98 % 0 mm
07:28 22.4 °C 22.1 °C 1015.8 hPa NNW 1.6 km/h 14.5 km/h 98 % 0 mm
07:33 22.4 °C 22.1 °C 1015.8 hPa NW 1.6 km/h 11.3 km/h 98 % 0 mm
07:38 22.6 °C 22.3 °C 1016.1 hPa WSW 1.6 km/h 9.7 km/h 98 % 0 mm
07:43 22.6 °C 22.3 °C 1016.1 hPa NW 1.6 km/h 9.7 km/h 98 % 0 mm
07:48 22.7 °C 22.4 °C 1016.1 hPa NNW 1.6 km/h 9.7 km/h 98 % 0 mm
07:53 22.8 °C 22.5 °C 1016.1 hPa NNW 3.2 km/h 8 km/h 98 % 0 mm
07:58 22.7 °C 22.2 °C 1016.1 hPa Calm   9.7 km/h 97 % 0 mm
08:03 22.8 °C 22.3 °C 1016.1 hPa Calm   11.3 km/h 97 % 0 mm
08:08 22.9 °C 22.4 °C 1016.5 hPa NW 3.2 km/h 11.3 km/h 97 % 0 mm
08:13 23 °C 22.3 °C 1016.5 hPa North 6.4 km/h 11.3 km/h 96 % 0 mm
08:18 23 °C 22.3 °C 1016.5 hPa North 3.2 km/h 11.3 km/h 96 % 0 mm
08:23 23.2 °C 22.4 °C 1016.5 hPa North 1.6 km/h 14.5 km/h 95 % 0 mm
08:28 23.4 °C 22.6 °C 1016.5 hPa NW 1.6 km/h 14.5 km/h 95 % 0 mm
08:33 23.6 °C 22.6 °C 1016.5 hPa NE 3.2 km/h 14.5 km/h 94 % 0 mm
08:38 23.6 °C 22.6 °C 1016.8 hPa North 1.6 km/h 9.7 km/h 94 % 0 mm
08:43 23.8 °C 22.6 °C 1016.8 hPa NNW 3.2 km/h 9.7 km/h 93 % 0 mm
08:48 23.9 °C 22.5 °C 1016.8 hPa NNW 4.8 km/h 9.7 km/h 92 % 0 mm
08:49 23.9 °C 22.5 °C 1016.8 hPa North 8 km/h 9.7 km/h 92 % 0 mm
08:55 23.8 °C 22.2 °C 1016.8 hPa NNW 6.4 km/h 9.7 km/h 91 % 0 mm
09:00 23.8 °C 22.2 °C 1016.8 hPa NNE 8 km/h 11.3 km/h 91 % 0 mm
09:05 23.9 °C 22.3 °C 1016.8 hPa North 4.8 km/h 14.5 km/h 91 % 0 mm
09:10 24 °C 22.3 °C 1017.2 hPa NNW 3.2 km/h 14.5 km/h 90 % 0 mm
09:13 24.1 °C 22.4 °C 1016.8 hPa NNW 9.7 km/h 14.5 km/h 90 % 0 mm
09:18 24.1 °C 22.4 °C 1016.8 hPa NW 3.2 km/h 12.9 km/h 90 % 0 mm
09:23 24.2 °C 22.5 °C 1016.8 hPa NE 9.7 km/h 12.9 km/h 90 % 0 mm
09:28 24.5 °C 22.7 °C 1016.5 hPa West 3.2 km/h 14.5 km/h 90 % 0 mm
09:33 24.7 °C 22.6 °C 1016.8 hPa NW 3.2 km/h 14.5 km/h 88 % 0 mm
09:38 24.9 °C 22.8 °C 1016.5 hPa NNW 1.6 km/h 14.5 km/h 88 % 0 mm
09:43 25 °C 22.7 °C 1016.5 hPa North 3.2 km/h 14.5 km/h 87 % 0 mm
09:48 25.1 °C 22.8 °C 1016.8 hPa NW 3.2 km/h 14.5 km/h 87 % 0 mm
09:53 25.3 °C 22.8 °C 1016.8 hPa NE 3.2 km/h 12.9 km/h 86 % 0 mm
09:58 25.3 °C 23 °C 1016.5 hPa ENE 1.6 km/h 11.3 km/h 87 % 0 mm
10:03 25.3 °C 22.8 °C 1016.5 hPa NNW 4.8 km/h 11.3 km/h 86 % 0 mm
10:08 25.4 °C 22.9 °C 1016.5 hPa ENE 1.6 km/h 11.3 km/h 86 % 0 mm
10:13 25.6 °C 23.1 °C 1016.5 hPa North 8 km/h 11.3 km/h 86 % 0 mm
10:19 25.7 °C 23.2 °C 1016.5 hPa NNE 4.8 km/h 14.5 km/h 86 % 0 mm
10:24 26.3 °C 23.6 °C 1016.5 hPa Calm   14.5 km/h 85 % 0 mm
10:29 26.9 °C 23.8 °C 1016.5 hPa ENE 1.6 km/h 14.5 km/h 83 % 0 mm
10:34 27.3 °C 24 °C 1016.5 hPa NW 11.3 km/h 11.3 km/h 82 % 0 mm
10:39 27.6 °C 24.2 °C 1016.5 hPa East 3.2 km/h 11.3 km/h 82 % 0 mm
10:44 27.8 °C 24 °C 1016.5 hPa NW 3.2 km/h 12.9 km/h 80 % 0 mm
10:49 28.1 °C 24.1 °C 1016.5 hPa WNW 1.6 km/h 12.9 km/h 79 % 0 mm
10:54 28.4 °C 24.4 °C 1016.5 hPa NE 3.2 km/h 12.9 km/h 79 % 0 mm
10:59 28.7 °C 24.5 °C 1016.5 hPa ENE 3.2 km/h 12.9 km/h 78 % 0 mm
11:04 28.8 °C 24.6 °C 1016.8 hPa NNW 3.2 km/h 12.9 km/h 78 % 0 mm
11:09 28.9 °C 24.5 °C 1016.5 hPa SE 6.4 km/h 12.9 km/h 77 % 0 mm
11:14 28.9 °C 24.5 °C 1016.8 hPa North 4.8 km/h 12.9 km/h 77 % 0 mm
11:19 29.1 °C 24.7 °C 1016.8 hPa NE 3.2 km/h 12.9 km/h 77 % 0 mm
11:24 29.2 °C 24.5 °C 1016.8 hPa NNW 3.2 km/h 12.9 km/h 76 % 0 mm
11:29 29.1 °C 24.4 °C 1016.5 hPa SSE 6.4 km/h 12.9 km/h 76 % 0 mm
11:34 29 °C 24.3 °C 1016.5 hPa NW 1.6 km/h 12.9 km/h 76 % 0 mm
11:39 29.1 °C 24.4 °C 1016.5 hPa ESE 1.6 km/h 12.9 km/h 76 % 0 mm
11:44 29.3 °C 24.6 °C 1016.1 hPa ENE 8 km/h 12.9 km/h 76 % 0 mm
11:49 29.7 °C 25 °C 1016.1 hPa ESE 8 km/h 12.9 km/h 76 % 0 mm
11:54 29.7 °C 24.3 °C 1016.1 hPa NW 1.6 km/h 11.3 km/h 73 % 0 mm
11:59 29.6 °C 24.9 °C 1016.1 hPa NE 1.6 km/h 12.9 km/h 76 % 0 mm
12:04 29.9 °C 24.5 °C 1016.1 hPa NNW 4.8 km/h 12.9 km/h 73 % 0 mm
12:09 30.2 °C 25 °C 1016.1 hPa Calm   12.9 km/h 74 % 0 mm
12:14 30.7 °C 24.8 °C 1016.1 hPa NW 3.2 km/h 11.3 km/h 71 % 0 mm
12:19 30.6 °C 24.5 °C 1016.1 hPa NW 3.2 km/h 9.7 km/h 70 % 0 mm
12:24 30.7 °C 24.6 °C 1016.1 hPa NNW 6.4 km/h 8 km/h 70 % 0 mm
12:29 30.9 °C 24.5 °C 1015.8 hPa Calm   8 km/h 69 % 0 mm
12:34 31.4 °C 24.8 °C 1015.8 hPa WNW 1.6 km/h 8 km/h 68 % 0 mm
12:39 31.1 °C 24.2 °C 1015.8 hPa Calm   14.5 km/h 67 % 0 mm
12:44 30.7 °C 24.1 °C 1015.8 hPa ENE 1.6 km/h 14.5 km/h 68 % 0 mm
12:49 30.5 °C 24.2 °C 1015.8 hPa NW 6.4 km/h 14.5 km/h 69 % 0 mm
12:54 30.4 °C 24.3 °C 1015.8 hPa NNE 1.6 km/h 9.7 km/h 70 % 0 mm
12:59 30.4 °C 24.3 °C 1015.8 hPa Calm   9.7 km/h 70 % 0 mm
13:04 30.9 °C 25.3 °C 1015.5 hPa NNW 3.2 km/h 9.7 km/h 72 % 0 mm
13:09 31.2 °C 24.6 °C 1015.5 hPa NNW 4.8 km/h 9.7 km/h 68 % 0 mm
13:14 30.9 °C 24.8 °C 1015.5 hPa NNE 3.2 km/h 9.7 km/h 70 % 0 mm
13:19 30.3 °C 24.2 °C 1015.5 hPa NNW 11.3 km/h 11.3 km/h 70 % 0 mm
13:24 29.7 °C 24.3 °C 1015.1 hPa NW 12.9 km/h 16.1 km/h 73 % 0 mm
13:29 29.2 °C 24.1 °C 1015.1 hPa NNW 9.7 km/h 20.9 km/h 74 % 0 mm
13:34 28.7 °C 24 °C 1015.1 hPa WNW 6.4 km/h 20.9 km/h 76 % 0 mm
13:35 28.6 °C 23.9 °C 1015.1 hPa NNW 12.9 km/h 20.9 km/h 76 % 0 mm
13:41 28.2 °C 24.2 °C 1015.1 hPa NNW 4.8 km/h 20.9 km/h 79 % 0 mm
13:46 28.2 °C 24 °C 1015.1 hPa North 11.3 km/h 19.3 km/h 78 % 0 mm
13:51 28.2 °C 24.4 °C 1014.8 hPa NNW 4.8 km/h 19.3 km/h 80 % 0 mm
13:56 28.3 °C 24.9 °C 1014.4 hPa NNW 11.3 km/h 17.7 km/h 82 % 0 mm
14:01 28.7 °C 24.9 °C 1014.4 hPa West 8 km/h 17.7 km/h 80 % 0 mm
14:06 29.2 °C 25 °C 1014.4 hPa North 6.4 km/h 17.7 km/h 78 % 0 mm
14:11 29.5 °C 25 °C 1014.4 hPa North 8 km/h 19.3 km/h 77 % 0 mm
14:16 29.7 °C 24.8 °C 1014.4 hPa NW 12.9 km/h 19.3 km/h 75 % 0 mm
14:21 29.7 °C 24.6 °C 1014.1 hPa North 4.8 km/h 20.9 km/h 74 % 0 mm
14:26 30.1 °C 24.7 °C 1014.1 hPa NNE 14.5 km/h 20.9 km/h 73 % 0 mm
14:31 29.8 °C 24.4 °C 1014.4 hPa NNE 4.8 km/h 20.9 km/h 73 % 0 mm
14:36 29.4 °C 24.5 °C 1014.4 hPa NNW 8 km/h 17.7 km/h 75 % 0 mm
14:41 29.3 °C 24.6 °C 1014.4 hPa NE 3.2 km/h 17.7 km/h 76 % 0 mm
14:46 29.1 °C 24.4 °C 1014.4 hPa WNW 1.6 km/h 17.7 km/h 76 % 0 mm
14:51 28.7 °C 24.5 °C 1014.8 hPa South 1.6 km/h 12.9 km/h 78 % 0 mm
14:56 28.3 °C 24.5 °C 1014.8 hPa SE 8 km/h 14.5 km/h 80 % 0 mm
15:01 27.9 °C 24.5 °C 1014.8 hPa NE 1.6 km/h 16.1 km/h 82 % 0 mm
15:06 28.2 °C 24.8 °C 1014.8 hPa ENE 4.8 km/h 16.1 km/h 82 % 0 mm
15:11 28.3 °C 24.3 °C 1015.1 hPa NNW 1.6 km/h 16.1 km/h 79 % 0 mm
15:16 28.4 °C 24.4 °C 1015.1 hPa WNW 4.8 km/h 12.9 km/h 79 % 0 mm
15:21 28.5 °C 24.5 °C 1015.1 hPa NW 6.4 km/h 12.9 km/h 79 % 0 mm
15:26 28.6 °C 24.4 °C 1015.1 hPa NNE 6.4 km/h 12.9 km/h 78 % 0 mm
15:31 28.8 °C 24.4 °C 1015.5 hPa NNE 6.4 km/h 11.3 km/h 77 % 0 mm
15:36 28.7 °C 24.5 °C 1015.5 hPa NE 4.8 km/h 11.3 km/h 78 % 0 mm
15:41 28.2 °C 24.4 °C 1015.8 hPa NW 6.4 km/h 19.3 km/h 80 % 0 mm
15:46 27.7 °C 24.3 °C 1016.1 hPa NW 4.8 km/h 19.3 km/h 82 % 0 mm
15:51 27.7 °C 24.1 °C 1015.8 hPa NNW 4.8 km/h 19.3 km/h 81 % 0 mm
15:56 27.4 °C 23.6 °C 1016.1 hPa NNW 1.6 km/h 19.3 km/h 80 % 0 mm
16:01 26.6 °C 23.3 °C 1016.1 hPa NW 6.4 km/h 19.3 km/h 82 % 0 mm
16:06 26.2 °C 23.3 °C 1016.5 hPa NNW 3.2 km/h 17.7 km/h 84 % 0 mm
16:12 25.8 °C 22.7 °C 1016.1 hPa North 6.4 km/h 17.7 km/h 83 % 0 mm
16:17 25.6 °C 22.7 °C 1016.1 hPa NNW 4.8 km/h 14.5 km/h 84 % 0 mm
16:22 25.4 °C 22.7 °C 1015.5 hPa NW 1.6 km/h 14.5 km/h 85 % 0 mm
16:27 25.4 °C 22.7 °C 1015.5 hPa WNW 8 km/h 16.1 km/h 85 % 0 mm
16:32 25.2 °C 22.5 °C 1015.1 hPa NNE 9.7 km/h 16.1 km/h 85 % 0 mm
16:37 25.1 °C 22.4 °C 1015.1 hPa North 6.4 km/h 19.3 km/h 85 % 0 mm
16:42 25 °C 22.5 °C 1014.8 hPa West 9.7 km/h 19.3 km/h 86 % 0 mm
16:47 25.1 °C 22.6 °C 1014.8 hPa NNE 3.2 km/h 19.3 km/h 86 % 0 mm
16:52 25.2 °C 22.7 °C 1014.8 hPa NE 3.2 km/h 19.3 km/h 86 % 0 mm
16:57 25.3 °C 22.6 °C 1014.4 hPa South 6.4 km/h 19.3 km/h 85 % 0 mm
17:02 25.5 °C 22.6 °C 1014.4 hPa NE 4.8 km/h 16.1 km/h 84 % 0 mm
17:07 25.4 °C 22.5 °C 1014.1 hPa NE 6.4 km/h 19.3 km/h 84 % 0 mm
17:12 25.4 °C 22.5 °C 1013.8 hPa NNW 11.3 km/h 19.3 km/h 84 % 0 mm
17:17 25.4 °C 22.5 °C 1014.4 hPa NNE 11.3 km/h 20.9 km/h 84 % 0 mm
17:22 25.4 °C 22.3 °C 1014.8 hPa NW 3.2 km/h 20.9 km/h 83 % 0 mm
17:27 25.5 °C 22.4 °C 1014.8 hPa NNW 11.3 km/h 20.9 km/h 83 % 0 mm
17:32 25.6 °C 22.3 °C 1015.1 hPa East 14.5 km/h 19.3 km/h 82 % 0 mm
17:37 25.6 °C 22.3 °C 1014.8 hPa ENE 9.7 km/h 19.3 km/h 82 % 0 mm
17:42 25.6 °C 22.3 °C 1014.8 hPa SE 1.6 km/h 19.3 km/h 82 % 0 mm
17:47 25.7 °C 22.4 °C 1014.8 hPa East 3.2 km/h 16.1 km/h 82 % 0 mm
17:52 25.7 °C 22.4 °C 1014.4 hPa NNW 4.8 km/h 14.5 km/h 82 % 0 mm
17:57 25.6 °C 22.3 °C 1014.4 hPa North 3.2 km/h 14.5 km/h 82 % 0 mm
18:02 25.6 °C 22.3 °C 1014.4 hPa NNE 3.2 km/h 16.1 km/h 82 % 0 mm
18:08 25.6 °C 22.3 °C 1014.8 hPa NNE 4.8 km/h 16.1 km/h 82 % 0 mm
18:13 25.5 °C 22.2 °C 1015.1 hPa East 4.8 km/h 16.1 km/h 82 % 0 mm
18:18 25.4 °C 22.1 °C 1015.1 hPa NE 9.7 km/h 14.5 km/h 82 % 0 mm
18:23 25.4 °C 22.1 °C 1015.1 hPa North 3.2 km/h 14.5 km/h 82 % 0 mm
18:27 25.3 °C 22 °C 1014.8 hPa NNW 1.6 km/h 11.3 km/h 82 % 0 mm
18:33 25.3 °C 22 °C 1014.1 hPa NW 3.2 km/h 11.3 km/h 82 % 0 mm
18:38 25.3 °C 22 °C 1014.1 hPa NW 3.2 km/h 14.5 km/h 82 % 0 mm
18:42 25.3 °C 22 °C 1014.8 hPa NW 1.6 km/h 16.1 km/h 82 % 0 mm
18:47 25.3 °C 22 °C 1014.8 hPa NNW 3.2 km/h 16.1 km/h 82 % 0 mm
18:53 25.3 °C 22 °C 1015.1 hPa North 1.6 km/h 16.1 km/h 82 % 0 mm
18:58 25.2 °C 21.9 °C 1015.1 hPa Calm   9.7 km/h 82 % 0 mm
19:03 25.1 °C 21.8 °C 1014.8 hPa NNW 3.2 km/h 11.3 km/h 82 % 0 mm
19:08 25.1 °C 21.8 °C 1014.8 hPa ENE 4.8 km/h 11.3 km/h 82 % 0 mm
19:13 25 °C 21.9 °C 1015.1 hPa SSW 1.6 km/h 12.9 km/h 83 % 0 mm
19:18 24.9 °C 21.8 °C 1015.1 hPa East 4.8 km/h 12.9 km/h 83 % 0 mm
19:23 24.9 °C 21.8 °C 1015.5 hPa NNE 1.6 km/h 12.9 km/h 83 % 0 mm
19:28 24.9 °C 21.8 °C 1015.5 hPa Calm   12.9 km/h 83 % 0 mm
19:33 24.8 °C 21.7 °C 1015.5 hPa ESE 3.2 km/h 12.9 km/h 83 % 0 mm
19:38 24.8 °C 21.7 °C 1015.1 hPa NNW 6.4 km/h 12.9 km/h 83 % 0 mm
19:43 24.8 °C 21.7 °C 1015.1 hPa NNW 4.8 km/h 9.7 km/h 83 % 0 mm
19:48 24.7 °C 21.6 °C 1015.5 hPa North 1.6 km/h 9.7 km/h 83 % 0 mm
19:53 24.7 °C 21.8 °C 1015.5 hPa ESE 4.8 km/h 9.7 km/h 84 % 0 mm
19:58 24.7 °C 21.8 °C 1015.8 hPa Calm   6.4 km/h 84 % 0 mm
20:03 24.7 °C 21.8 °C 1015.8 hPa ENE 1.6 km/h 6.4 km/h 84 % 0 mm
20:08 24.6 °C 21.7 °C 1015.8 hPa North 1.6 km/h 6.4 km/h 84 % 0 mm
20:13 24.6 °C 21.7 °C 1015.8 hPa Calm   6.4 km/h 84 % 0 mm
20:18 24.6 °C 21.7 °C 1015.8 hPa North 1.6 km/h 6.4 km/h 84 % 0 mm
20:23 24.6 °C 21.7 °C 1016.1 hPa WNW 1.6 km/h 6.4 km/h 84 % 0 mm
20:28 24.6 °C 21.9 °C 1016.1 hPa Calm   6.4 km/h 85 % 0 mm
20:33 24.5 °C 21.8 °C 1016.1 hPa Calm   6.4 km/h 85 % 0 mm
20:38 24.5 °C 21.8 °C 1016.1 hPa NW 3.2 km/h 4.8 km/h 85 % 0 mm
20:43 24.5 °C 21.8 °C 1016.1 hPa East 3.2 km/h 4.8 km/h 85 % 0 mm
20:53 24.4 °C 21.7 °C 1016.8 hPa ENE 3.2 km/h 6.4 km/h 85 % 0 mm
20:58 24.4 °C 21.9 °C 1016.8 hPa East 1.6 km/h 6.4 km/h 86 % 0 mm
21:03 24.3 °C 21.8 °C 1016.8 hPa Calm   4.8 km/h 86 % 0 mm
21:08 24.3 °C 22 °C 1016.5 hPa Calm   4.8 km/h 87 % 0 mm
21:13 24.2 °C 22.1 °C 1016.1 hPa NNE 3.2 km/h 4.8 km/h 88 % 0 mm
21:18 24.1 °C 22 °C 1016.1 hPa Calm   4.8 km/h 88 % 0 mm
21:23 23.9 °C 22 °C 1016.1 hPa North 1.6 km/h 3.2 km/h 89 % 0 mm
21:28 23.8 °C 22.1 °C 1016.1 hPa NNW 1.6 km/h 3.2 km/h 90 % 0 mm
21:33 23.7 °C 22 °C 1016.1 hPa NNW 1.6 km/h 4.8 km/h 90 % 0 mm
21:38 23.6 °C 22 °C 1015.8 hPa NW 4.8 km/h 4.8 km/h 91 % 0 mm
21:43 23.6 °C 22 °C 1016.1 hPa NW 3.2 km/h 9.7 km/h 91 % 0 mm
21:48 23.4 °C 22 °C 1016.1 hPa NNE 4.8 km/h 9.7 km/h 92 % 0 mm
21:53 23.3 °C 21.9 °C 1015.8 hPa NW 3.2 km/h 12.9 km/h 92 % 0 mm
21:58 23.3 °C 21.9 °C 1015.8 hPa Calm   12.9 km/h 92 % 0 mm
22:03 23.2 °C 21.8 °C 1015.8 hPa NNE 3.2 km/h 12.9 km/h 92 % 0 mm
22:08 23.2 °C 21.8 °C 1015.8 hPa North 3.2 km/h 12.9 km/h 92 % 0 mm
22:13 23.1 °C 21.7 °C 1015.8 hPa NNE 3.2 km/h 12.9 km/h 92 % 0 mm
22:18 23.1 °C 21.7 °C 1016.1 hPa NNW 3.2 km/h 11.3 km/h 92 % 0 mm
22:23 23 °C 21.4 °C 1016.1 hPa NNW 6.4 km/h 17.7 km/h 91 % 0 mm
22:28 23 °C 21.4 °C 1016.5 hPa East 1.6 km/h 17.7 km/h 91 % 0 mm
22:33 22.9 °C 21.4 °C 1016.5 hPa SE 3.2 km/h 17.7 km/h 91 % 0 mm
22:38 22.9 °C 21.2 °C 1016.5 hPa ESE 6.4 km/h 11.3 km/h 90 % 0 mm
22:43 22.9 °C 21.2 °C 1016.5 hPa NNW 3.2 km/h 11.3 km/h 90 % 0 mm
22:48 23 °C 21.3 °C 1016.5 hPa Calm   17.7 km/h 90 % 0 mm
22:53 23 °C 21.3 °C 1016.5 hPa ESE 1.6 km/h 17.7 km/h 90 % 0 mm
22:58 23 °C 21.3 °C 1016.5 hPa ENE 8 km/h 17.7 km/h 90 % 0 mm
23:03 22.9 °C 21.2 °C 1016.8 hPa East 1.6 km/h 11.3 km/h 90 % 0 mm
23:08 22.9 °C 21.2 °C 1016.8 hPa East 1.6 km/h 9.7 km/h 90 % 0 mm
23:13 22.9 °C 21.4 °C 1016.8 hPa East 3.2 km/h 9.7 km/h 91 % 0 mm
23:18 22.9 °C 21.4 °C 1016.8 hPa Calm   6.4 km/h 91 % 0 mm
23:23 22.8 °C 21.3 °C 1017.2 hPa Calm   6.4 km/h 91 % 0 mm
23:28 22.8 °C 21.3 °C 1017.2 hPa Calm   6.4 km/h 91 % 0 mm
23:34 22.8 °C 21.4 °C 1016.8 hPa ENE 1.6 km/h 4.8 km/h 92 % 0 mm
23:39 22.7 °C 21.3 °C 1016.8 hPa NNW 1.6 km/h 6.4 km/h 92 % 0 mm
23:44 22.7 °C 21.3 °C 1016.8 hPa Calm   8 km/h 92 % 0 mm
23:49 22.7 °C 21.3 °C 1016.8 hPa Calm   8 km/h 92 % 0 mm
23:54 22.6 °C 21.4 °C 1016.8 hPa Calm   8 km/h 93 % 0 mm
23:59 22.6 °C 21.4 °C 1016.8 hPa Calm   6.4 km/h 93 % 0 mm
Spring, Texas: Villages of Bridgestone
Compliments of Weather Underground - 2.75 mb

Script developed by  Jim McMurry - jmcmurry@mwt.net Adapted for the template by  Wim van der Kuil - Leuven-Template.eu

You find our weather info also at:

UK Metoffice

WeatherCloud

Weather Underground

Mid-South Weather Network

AWEKAS

Citizen Weather Observer Program (CWOP)

HAMweather, WeatherForYou, PWS Weather

Equipment we use:

Weather-station
Davis Vantage Vue

Weather-program
Meteohub

Weather-server
Debian 7.9 x86 (Guest)

Provider
DreamHost

Davis Vantage Vue

Meteohub

Debian 7.9 x86 (Guest)

DreamHost